createdAt,value
2023-05-05T00:00:27.732Z,46.5724
2023-05-05T00:01:28.839Z,46.5938
2023-05-05T00:02:30.051Z,46.6030
2023-05-05T00:03:31.134Z,46.5273
2023-05-05T00:04:32.163Z,46.6031
2023-05-05T00:05:33.282Z,46.6024
2023-05-05T00:06:34.386Z,46.6271
2023-05-05T00:07:35.522Z,46.6626
2023-05-05T00:08:36.591Z,46.6185
2023-05-05T00:09:37.717Z,46.5927
2023-05-05T00:10:38.805Z,46.5235
2023-05-05T00:11:39.920Z,46.5595
2023-05-05T00:12:41.053Z,46.6241
2023-05-05T00:13:42.151Z,46.6754
2023-05-05T00:14:43.231Z,46.6804
2023-05-05T00:15:44.340Z,46.7212
2023-05-05T00:16:45.457Z,46.7523
2023-05-05T00:17:46.630Z,46.7276
2023-05-05T00:18:47.658Z,46.7609
2023-05-05T00:19:48.755Z,46.7920
2023-05-05T00:20:49.883Z,46.8121
2023-05-05T00:21:50.957Z,46.8568
2023-05-05T00:22:52.075Z,46.8933
2023-05-05T00:23:53.181Z,46.9775
2023-05-05T00:24:54.291Z,47.0015
2023-05-05T00:25:55.380Z,47.0315
2023-05-05T00:26:56.494Z,47.0674
2023-05-05T00:27:57.604Z,47.1065
2023-05-05T00:28:58.711Z,47.0569
2023-05-05T00:29:59.815Z,47.0302
2023-05-05T00:31:00.957Z,47.0108
2023-05-05T00:32:02.037Z,46.9628
2023-05-05T00:33:03.217Z,46.9485
2023-05-05T00:34:04.252Z,46.9898
2023-05-05T00:35:05.327Z,47.0584
2023-05-05T00:36:06.407Z,47.1322
2023-05-05T00:37:07.520Z,47.1385
2023-05-05T00:38:08.638Z,47.1933
2023-05-05T00:39:09.705Z,47.2816
2023-05-05T00:40:10.796Z,47.2496
2023-05-05T00:41:11.905Z,47.1875
2023-05-05T00:42:13.022Z,47.1527
2023-05-05T00:43:14.093Z,47.1672
2023-05-05T00:44:15.188Z,47.1686
2023-05-05T00:45:16.291Z,47.0724
2023-05-05T00:46:17.410Z,46.9528
2023-05-05T00:47:18.469Z,46.9372
2023-05-05T00:48:19.592Z,46.9515
2023-05-05T00:49:20.703Z,46.9546
2023-05-05T00:50:21.773Z,46.9118
2023-05-05T00:51:22.841Z,46.9868
2023-05-05T00:52:23.930Z,47.0799
2023-05-05T00:53:25.234Z,47.0993
2023-05-05T00:54:26.124Z,47.0778
2023-05-05T00:55:27.225Z,47.0308
2023-05-05T00:56:28.311Z,47.0119
2023-05-05T00:57:29.394Z,47.0572
2023-05-05T00:58:30.494Z,47.0632
2023-05-05T00:59:31.582Z,47.0347
2023-05-05T01:00:32.696Z,47.0298
2023-05-05T01:01:33.799Z,47.0502
2023-05-05T01:02:34.944Z,47.0479
2023-05-05T01:03:36.080Z,47.0899
2023-05-05T01:04:37.093Z,47.1214
2023-05-05T01:05:38.167Z,47.1147
2023-05-05T01:06:39.255Z,47.0794
2023-05-05T01:07:40.358Z,47.0705
2023-05-05T01:08:41.496Z,47.0633
2023-05-05T01:09:42.535Z,47.1695
2023-05-05T01:10:43.643Z,47.2280
2023-05-05T01:11:44.764Z,47.2338
2023-05-05T01:12:45.863Z,47.3192
2023-05-05T01:13:46.967Z,47.3241
2023-05-05T01:14:48.020Z,47.3551
2023-05-05T01:15:49.118Z,47.4014
2023-05-05T01:16:50.213Z,47.3565
2023-05-05T01:17:51.319Z,47.2656
2023-05-05T01:18:52.420Z,47.2047
2023-05-05T01:19:53.505Z,47.2002
2023-05-05T01:20:54.585Z,47.2265
2023-05-05T01:21:55.686Z,47.2938
2023-05-05T01:22:56.800Z,47.4085
2023-05-05T01:23:57.877Z,47.5195
2023-05-05T01:24:58.989Z,47.5827
2023-05-05T01:26:00.097Z,47.5194
2023-05-05T01:27:01.168Z,47.4567
2023-05-05T01:28:02.275Z,47.4457
2023-05-05T01:29:03.403Z,47.3847
2023-05-05T01:30:04.477Z,47.4002
2023-05-05T01:31:05.578Z,47.3986
2023-05-05T01:32:06.656Z,47.3734
2023-05-05T01:33:07.744Z,47.3340
2023-05-05T01:34:08.865Z,47.3542
2023-05-05T01:35:09.957Z,47.4085
2023-05-05T01:36:11.021Z,47.4496
2023-05-05T01:37:12.139Z,47.5318
2023-05-05T01:38:13.231Z,47.6116
2023-05-05T01:39:14.333Z,47.6641
2023-05-05T01:40:15.424Z,47.6772
2023-05-05T01:41:16.525Z,47.6758
2023-05-05T01:42:17.609Z,47.7043
2023-05-05T01:43:18.694Z,47.7285
2023-05-05T01:44:19.790Z,47.7916
2023-05-05T01:45:20.889Z,47.8332
2023-05-05T01:46:22.031Z,47.8715
2023-05-05T01:47:23.089Z,47.9063
2023-05-05T01:48:24.209Z,47.8730
2023-05-05T01:49:25.298Z,47.8137
2023-05-05T01:50:26.372Z,47.7927
2023-05-05T01:51:27.481Z,47.8088
2023-05-05T01:52:28.576Z,47.8386
2023-05-05T01:53:29.681Z,47.8281
2023-05-05T01:54:30.780Z,47.7996
2023-05-05T01:55:31.876Z,47.7482
2023-05-05T01:56:32.981Z,47.7913
2023-05-05T01:57:34.046Z,47.8639
2023-05-05T01:58:35.145Z,47.8593
2023-05-05T01:59:36.248Z,47.8240
2023-05-05T02:00:37.357Z,47.7522
2023-05-05T02:01:38.541Z,47.6006
2023-05-05T02:02:39.614Z,47.4475
2023-05-05T02:03:40.637Z,47.3971
2023-05-05T02:04:41.754Z,47.4584
2023-05-05T02:05:50.379Z,47.4751
2023-05-05T02:06:43.937Z,47.4805
2023-05-05T02:07:45.050Z,47.4316
2023-05-05T02:08:46.265Z,47.4075
2023-05-05T02:09:47.323Z,47.2890
2023-05-05T02:10:48.456Z,47.2553
2023-05-05T02:11:49.510Z,47.1681
2023-05-05T02:12:50.611Z,47.0867
2023-05-05T02:13:51.820Z,46.9810
2023-05-05T02:14:52.800Z,46.9051
2023-05-05T02:15:53.887Z,46.7836
2023-05-05T02:16:54.981Z,46.6599
2023-05-05T02:17:56.097Z,46.6026
2023-05-05T02:18:57.206Z,46.5163
2023-05-05T02:19:58.285Z,46.5609
2023-05-05T02:20:59.368Z,46.4813
2023-05-05T02:22:00.452Z,46.4575
2023-05-05T02:23:01.542Z,46.4489
2023-05-05T02:24:02.660Z,46.4075
2023-05-05T02:25:03.747Z,46.3937
2023-05-05T02:26:04.839Z,46.3180
2023-05-05T02:27:05.935Z,46.1821
2023-05-05T02:28:07.026Z,46.1173
2023-05-05T02:29:08.141Z,46.1062
2023-05-05T02:30:09.395Z,46.0606
2023-05-05T02:31:10.362Z,46.0544
2023-05-05T02:32:11.410Z,46.0527
2023-05-05T02:33:12.501Z,45.9835
2023-05-05T02:34:13.592Z,45.9147
2023-05-05T02:35:14.700Z,45.8937
2023-05-05T02:36:15.766Z,45.8805
2023-05-05T02:37:16.860Z,45.8539
2023-05-05T02:38:17.960Z,45.8955
2023-05-05T02:39:19.035Z,45.8710
2023-05-05T02:40:20.201Z,45.9488
2023-05-05T02:41:21.245Z,45.9659
2023-05-05T02:42:22.317Z,45.9803
2023-05-05T02:43:23.460Z,46.0731
2023-05-05T02:44:24.519Z,46.1105
2023-05-05T02:45:25.624Z,46.1013
2023-05-05T02:46:26.714Z,46.1020
2023-05-05T02:47:27.840Z,46.0966
2023-05-05T02:48:28.913Z,46.1121
2023-05-05T02:49:29.986Z,46.1782
2023-05-05T02:50:31.085Z,46.2578
2023-05-05T02:51:32.150Z,46.3225
2023-05-05T02:52:33.247Z,46.3796
2023-05-05T02:53:34.352Z,46.4295
2023-05-05T02:54:35.447Z,46.4603
2023-05-05T02:55:36.692Z,46.4959
2023-05-05T02:56:37.614Z,46.5920
2023-05-05T02:57:38.701Z,46.6467
2023-05-05T02:58:39.818Z,46.7132
2023-05-05T02:59:40.889Z,46.7145
2023-05-05T03:00:41.987Z,46.7150
2023-05-05T03:01:43.102Z,46.7922
2023-05-05T03:02:44.234Z,46.7859
2023-05-05T03:03:45.367Z,46.7949
2023-05-05T03:04:46.365Z,46.8818
2023-05-05T03:05:47.513Z,46.9530
2023-05-05T03:06:48.540Z,46.9771
2023-05-05T03:07:49.637Z,46.9720
2023-05-05T03:08:50.728Z,46.9696
2023-05-05T03:09:51.835Z,47.0099
2023-05-05T03:10:52.921Z,47.0342
2023-05-05T03:11:54.021Z,46.9800
2023-05-05T03:12:55.180Z,46.9664
2023-05-05T03:13:56.204Z,46.9488
2023-05-05T03:14:57.309Z,46.9796
2023-05-05T03:15:58.423Z,47.0290
2023-05-05T03:16:59.506Z,47.0405
2023-05-05T03:18:00.634Z,47.0661
2023-05-05T03:19:01.690Z,47.1038
2023-05-05T03:20:05.388Z,47.1189
2023-05-05T03:21:03.868Z,47.1402
2023-05-05T03:22:04.953Z,47.1517
2023-05-05T03:23:06.074Z,47.1843
2023-05-05T03:24:07.181Z,47.1893
2023-05-05T03:25:08.258Z,47.2188
2023-05-05T03:26:09.367Z,47.2885
2023-05-05T03:27:10.439Z,47.2938
2023-05-05T03:28:11.534Z,47.2305
2023-05-05T03:29:12.635Z,47.2461
2023-05-05T03:30:13.715Z,47.2158
2023-05-05T03:31:14.850Z,47.1513
2023-05-05T03:32:15.932Z,47.0857
2023-05-05T03:33:17.010Z,47.0477
2023-05-05T03:34:18.100Z,47.0026
2023-05-05T03:35:19.203Z,46.9689
2023-05-05T03:36:20.314Z,46.9706
2023-05-05T03:37:21.404Z,46.9626
2023-05-05T03:38:22.517Z,46.9500
2023-05-05T03:39:23.599Z,46.9331
2023-05-05T03:40:36.334Z,46.9509
2023-05-05T03:41:26.809Z,46.9528
2023-05-05T03:42:26.887Z,46.9246
2023-05-05T03:43:27.976Z,46.9395
2023-05-05T03:44:29.094Z,47.0014
2023-05-05T03:45:30.177Z,47.0880
2023-05-05T03:46:31.297Z,47.1311
2023-05-05T03:47:32.408Z,47.1392
2023-05-05T03:48:33.455Z,47.0715
2023-05-05T03:49:34.549Z,47.0175
2023-05-05T03:50:35.660Z,46.8982
2023-05-05T03:51:36.779Z,46.8528
2023-05-05T03:52:37.852Z,46.8174
2023-05-05T03:53:38.952Z,46.7573
2023-05-05T03:54:40.068Z,46.6701
2023-05-05T03:55:41.124Z,46.6446
2023-05-05T03:56:42.261Z,46.6236
2023-05-05T03:57:43.346Z,46.6677
2023-05-05T03:58:44.424Z,46.7266
2023-05-05T03:59:45.529Z,46.7477
2023-05-05T04:00:46.633Z,46.7961
2023-05-05T04:01:47.745Z,46.8640
2023-05-05T04:02:48.891Z,46.8959
2023-05-05T04:03:49.950Z,46.8603
2023-05-05T04:04:51.014Z,46.8016
2023-05-05T04:05:52.099Z,46.7313
2023-05-05T04:06:53.212Z,46.7305
2023-05-05T04:07:54.338Z,46.7299
2023-05-05T04:08:55.416Z,46.6898
2023-05-05T04:09:56.511Z,46.6828
2023-05-05T04:10:57.626Z,46.6576
2023-05-05T04:11:58.722Z,46.6137
2023-05-05T04:12:59.841Z,46.5536
2023-05-05T04:14:00.896Z,46.5308
2023-05-05T04:15:02.021Z,46.5738
2023-05-05T04:16:03.147Z,46.5653
2023-05-05T04:17:04.212Z,46.5827
2023-05-05T04:18:05.339Z,46.5787
2023-05-05T04:19:06.413Z,46.5625
2023-05-05T04:20:07.692Z,46.5871
2023-05-05T04:21:08.609Z,46.6740
2023-05-05T04:22:09.699Z,46.7150
2023-05-05T04:23:10.787Z,46.6930
2023-05-05T04:24:11.882Z,46.7057
2023-05-05T04:25:13.003Z,46.6407
2023-05-05T04:26:14.080Z,46.6095
2023-05-05T04:27:15.212Z,46.5732
2023-05-05T04:28:16.288Z,46.5451
2023-05-05T04:29:17.370Z,46.5766
2023-05-05T04:30:18.487Z,46.5530
2023-05-05T04:31:19.589Z,46.4391
2023-05-05T04:32:20.698Z,46.3584
2023-05-05T04:33:21.761Z,46.3398
2023-05-05T04:34:22.877Z,46.3224
2023-05-05T04:35:23.949Z,46.3035
2023-05-05T04:36:25.044Z,46.3333
2023-05-05T04:37:26.193Z,46.2631
2023-05-05T04:38:27.296Z,46.1846
2023-05-05T04:39:28.344Z,46.0936
2023-05-05T04:40:29.452Z,46.1515
2023-05-05T04:41:30.571Z,46.2042
2023-05-05T04:42:31.635Z,46.2669
2023-05-05T04:43:32.747Z,46.3054
2023-05-05T04:44:33.832Z,46.2338
2023-05-05T04:45:34.929Z,46.2814
2023-05-05T04:46:36.081Z,46.2328
2023-05-05T04:47:37.156Z,46.2469
2023-05-05T04:48:38.216Z,46.2799
2023-05-05T04:49:39.314Z,46.3275
2023-05-05T04:50:40.421Z,46.2820
2023-05-05T04:51:41.512Z,46.2200
2023-05-05T04:52:42.628Z,46.1977
2023-05-05T04:53:43.702Z,46.1688
2023-05-05T04:54:44.786Z,46.1335
2023-05-05T04:55:45.898Z,46.1448
2023-05-05T04:56:46.975Z,46.1014
2023-05-05T04:57:48.103Z,46.0831
2023-05-05T04:58:49.178Z,46.0447
2023-05-05T04:59:50.272Z,45.9955
2023-05-05T05:00:51.356Z,46.0162
2023-05-05T05:01:52.473Z,46.0753
2023-05-05T05:02:53.611Z,46.0868
2023-05-05T05:03:54.673Z,46.1496
2023-05-05T05:04:55.748Z,46.1326
2023-05-05T05:05:56.832Z,46.0795
2023-05-05T05:06:59.305Z,46.0365
2023-05-05T05:07:59.046Z,45.9761
2023-05-05T05:09:00.156Z,45.8958
2023-05-05T05:10:01.238Z,45.7776
2023-05-05T05:11:02.322Z,45.6039
2023-05-05T05:12:03.447Z,45.5944
2023-05-05T05:13:04.553Z,45.6982
2023-05-05T05:14:05.630Z,45.6450
2023-05-05T05:15:06.731Z,45.6547
2023-05-05T05:16:07.929Z,45.6253
2023-05-05T05:17:08.930Z,45.7372
2023-05-05T05:18:10.043Z,45.7818
2023-05-05T05:19:11.130Z,45.8146
2023-05-05T05:20:12.216Z,45.8674
2023-05-05T05:21:13.319Z,45.9609
2023-05-05T05:22:14.421Z,46.0566
2023-05-05T05:23:15.519Z,46.1509
2023-05-05T05:24:16.642Z,46.2257
2023-05-05T05:25:17.710Z,46.2885
2023-05-05T05:26:18.800Z,46.2421
2023-05-05T05:27:19.912Z,46.3166
2023-05-05T05:28:21.002Z,46.5092
2023-05-05T05:29:22.102Z,46.5821
2023-05-05T05:30:23.200Z,46.7379
2023-05-05T05:31:24.322Z,46.8021
2023-05-05T05:32:25.419Z,46.8339
2023-05-05T05:33:26.517Z,46.8756
2023-05-05T05:34:27.606Z,46.9243
2023-05-05T05:35:28.707Z,46.9231
2023-05-05T05:36:29.820Z,46.9346
2023-05-05T05:37:30.902Z,46.8941
2023-05-05T05:38:32.003Z,46.8218
2023-05-05T05:39:33.102Z,46.9492
2023-05-05T05:40:34.182Z,46.9497
2023-05-05T05:41:35.304Z,46.9324
2023-05-05T05:42:36.374Z,47.0380
2023-05-05T05:43:37.487Z,47.1725
2023-05-05T05:44:38.597Z,47.2753
2023-05-05T05:45:39.727Z,47.2408
2023-05-05T05:46:40.903Z,47.4291
2023-05-05T05:47:41.905Z,47.5554
2023-05-05T05:48:42.957Z,47.5066
2023-05-05T05:49:44.058Z,47.5932
2023-05-05T05:50:45.162Z,47.6209
2023-05-05T05:51:46.264Z,47.4286
2023-05-05T05:52:47.374Z,47.2481
2023-05-05T05:53:48.446Z,47.3052
2023-05-05T05:54:49.551Z,47.4200
2023-05-05T05:55:50.650Z,47.3636
2023-05-05T05:56:51.751Z,47.4600
2023-05-05T05:57:52.854Z,47.5230
2023-05-05T05:58:54.121Z,47.5625
2023-05-05T05:59:55.042Z,47.6440
2023-05-05T06:00:56.154Z,47.6652
2023-05-05T06:01:57.259Z,47.6185
2023-05-05T06:02:58.404Z,47.4108
2023-05-05T06:03:59.496Z,47.3567
2023-05-05T06:05:00.524Z,47.3999
2023-05-05T06:06:01.658Z,47.5008
2023-05-05T06:07:02.724Z,47.6337
2023-05-05T06:08:03.826Z,47.7112
2023-05-05T06:09:04.957Z,47.8181
2023-05-05T06:10:25.190Z,47.8869
2023-05-05T06:11:08.203Z,48.0782
2023-05-05T06:12:08.304Z,48.2956
2023-05-05T06:13:09.427Z,48.0983
2023-05-05T06:14:10.514Z,47.9246
2023-05-05T06:15:11.586Z,47.9222
2023-05-05T06:16:12.746Z,48.0845
2023-05-05T06:17:13.782Z,48.0596
2023-05-05T06:18:14.898Z,48.2063
2023-05-05T06:19:15.990Z,48.2643
2023-05-05T06:20:17.061Z,48.2266
2023-05-05T06:21:18.148Z,48.3354
2023-05-05T06:22:19.247Z,48.2683
2023-05-05T06:23:20.359Z,48.2774
2023-05-05T06:24:21.465Z,48.3293
2023-05-05T06:25:22.539Z,48.3427
2023-05-05T06:26:23.636Z,48.4311
2023-05-05T06:27:24.755Z,48.4045
2023-05-05T06:28:25.825Z,48.3979
2023-05-05T06:29:26.930Z,48.4230
2023-05-05T06:30:28.020Z,48.4778
2023-05-05T06:31:29.178Z,48.4663
2023-05-05T06:32:30.226Z,48.4189
2023-05-05T06:33:31.302Z,48.5867
2023-05-05T06:34:32.446Z,48.5880
2023-05-05T06:35:33.528Z,48.5812
2023-05-05T06:36:34.687Z,48.7041
2023-05-05T06:37:35.716Z,48.7170
2023-05-05T06:38:36.821Z,48.2926
2023-05-05T06:39:37.921Z,48.2832
2023-05-05T06:40:39.009Z,48.1397
2023-05-05T06:41:40.097Z,48.1466
2023-05-05T06:42:41.194Z,48.1645
2023-05-05T06:43:42.286Z,48.1666
2023-05-05T06:44:43.396Z,48.2341
2023-05-05T06:45:44.507Z,48.4424
2023-05-05T06:46:45.611Z,48.5363
2023-05-05T06:47:46.723Z,48.5884
2023-05-05T06:48:47.811Z,48.5959
2023-05-05T06:49:48.896Z,48.5058
2023-05-05T06:50:49.982Z,48.4327
2023-05-05T06:51:51.085Z,48.3483
2023-05-05T06:52:52.175Z,48.3123
2023-05-05T06:53:53.274Z,48.2377
2023-05-05T06:54:54.379Z,48.1589
2023-05-05T06:55:55.464Z,48.1458
2023-05-05T06:56:59.331Z,47.9322
2023-05-05T06:57:57.700Z,47.8054
2023-05-05T06:58:58.771Z,47.6550
2023-05-05T07:00:00.004Z,47.4797
2023-05-05T07:01:01.025Z,47.5249
2023-05-05T07:02:02.079Z,47.5421
2023-05-05T07:03:03.212Z,47.7827
2023-05-05T07:04:04.357Z,47.5347
2023-05-05T07:05:05.348Z,47.4051
2023-05-05T07:06:06.464Z,47.3715
2023-05-05T07:07:07.549Z,47.5469
2023-05-05T07:08:08.645Z,47.4286
2023-05-05T07:09:09.777Z,47.1866
2023-05-05T07:10:10.939Z,47.0969
2023-05-05T07:11:11.983Z,47.1260
2023-05-05T07:12:13.064Z,47.4065
2023-05-05T07:13:14.229Z,47.3473
2023-05-05T07:14:15.273Z,47.2761
2023-05-05T07:15:26.737Z,47.1888
2023-05-05T07:16:18.470Z,47.0697
2023-05-05T07:17:18.552Z,47.0551
2023-05-05T07:18:19.652Z,47.2006
2023-05-05T07:19:20.757Z,47.1071
2023-05-05T07:20:21.869Z,47.3489
2023-05-05T07:21:22.968Z,47.2803
2023-05-05T07:22:24.077Z,47.2327
2023-05-05T07:23:25.145Z,47.3982
2023-05-05T07:24:26.242Z,47.2663
2023-05-05T07:25:27.364Z,47.2796
2023-05-05T07:26:28.439Z,47.2585
2023-05-05T07:27:29.546Z,47.1638
2023-05-05T07:28:30.631Z,47.1010
2023-05-05T07:29:31.738Z,47.1764
2023-05-05T07:30:32.880Z,47.1392
2023-05-05T07:31:33.949Z,47.1766
2023-05-05T07:32:35.027Z,47.2041
2023-05-05T07:33:36.135Z,47.1103
2023-05-05T07:34:37.477Z,47.0307
2023-05-05T07:35:38.309Z,46.9883
2023-05-05T07:36:39.408Z,47.0256
2023-05-05T07:37:40.492Z,47.0947
2023-05-05T07:38:41.601Z,47.1668
2023-05-05T07:39:42.716Z,47.2519
2023-05-05T07:40:43.813Z,47.3098
2023-05-05T07:41:44.895Z,47.4075
2023-05-05T07:42:45.988Z,47.3969
2023-05-05T07:43:47.089Z,47.4550
2023-05-05T07:44:48.193Z,47.5370
2023-05-05T07:45:49.342Z,47.5283
2023-05-05T07:46:50.357Z,47.4994
2023-05-05T07:47:51.481Z,47.5768
2023-05-05T07:48:52.556Z,47.5552
2023-05-05T07:49:53.638Z,47.5881
2023-05-05T07:50:54.769Z,47.5021
2023-05-05T07:51:55.863Z,47.5289
2023-05-05T07:53:06.215Z,47.6516
2023-05-05T07:53:59.037Z,47.7084
2023-05-05T07:54:59.143Z,47.6935
2023-05-05T07:56:00.269Z,47.6908
2023-05-05T07:57:01.349Z,47.8990
2023-05-05T07:58:02.434Z,47.7900
2023-05-05T07:59:03.555Z,47.7974
2023-05-05T08:00:04.765Z,47.9531
2023-05-05T08:01:05.912Z,47.8415
2023-05-05T08:02:06.924Z,47.8646
2023-05-05T08:03:11.307Z,47.8792
2023-05-05T08:04:09.092Z,47.8382
2023-05-05T08:05:10.264Z,47.8147
2023-05-05T08:06:11.310Z,47.8348
2023-05-05T08:07:12.324Z,47.8286
2023-05-05T08:08:13.418Z,47.7363
2023-05-05T08:09:14.539Z,47.6472
2023-05-05T08:10:15.610Z,47.5943
2023-05-05T08:11:16.722Z,47.6606
2023-05-05T08:12:17.875Z,47.5532
2023-05-05T08:13:19.004Z,47.3612
2023-05-05T08:14:20.037Z,47.4621
2023-05-05T08:15:21.090Z,47.5268
2023-05-05T08:16:22.289Z,47.6532
2023-05-05T08:17:23.310Z,47.5835
2023-05-05T08:18:24.378Z,47.5544
2023-05-05T08:19:29.250Z,47.6273
2023-05-05T08:20:26.564Z,47.7203
2023-05-05T08:21:27.680Z,47.6763
2023-05-05T08:22:28.740Z,47.6994
2023-05-05T08:23:29.842Z,47.7459
2023-05-05T08:24:30.939Z,47.7681
2023-05-05T08:25:32.073Z,47.8919
2023-05-05T08:26:33.157Z,47.8902
2023-05-05T08:27:34.250Z,47.9399
2023-05-05T08:28:35.354Z,47.8078
2023-05-05T08:29:36.429Z,47.7443
2023-05-05T08:30:37.559Z,47.7506
2023-05-05T08:31:38.910Z,47.6754
2023-05-05T08:32:39.813Z,47.5936
2023-05-05T08:33:40.840Z,47.7125
2023-05-05T08:34:41.927Z,47.8293
2023-05-05T08:35:43.038Z,47.8687
2023-05-05T08:36:44.166Z,47.9562
2023-05-05T08:37:45.233Z,47.9311
2023-05-05T08:38:46.350Z,47.9302
2023-05-05T08:39:47.453Z,47.8668
2023-05-05T08:40:48.541Z,47.7669
2023-05-05T08:41:49.644Z,47.9347
2023-05-05T08:42:50.747Z,47.8558
2023-05-05T08:43:51.826Z,48.0532
2023-05-05T08:44:52.942Z,48.0164
2023-05-05T08:45:54.044Z,48.0346
2023-05-05T08:46:55.229Z,48.0026
2023-05-05T08:47:56.275Z,48.1693
2023-05-05T08:48:57.334Z,48.3601
2023-05-05T08:49:58.438Z,48.3403
2023-05-05T08:51:00.791Z,48.2181
2023-05-05T08:52:00.638Z,48.0470
2023-05-05T08:53:01.760Z,47.9391
2023-05-05T08:54:02.811Z,48.0155
2023-05-05T08:55:03.917Z,48.0231
2023-05-05T08:56:05.024Z,48.0608
2023-05-05T08:57:06.141Z,48.0722
2023-05-05T08:58:07.236Z,48.0715
2023-05-05T08:59:08.319Z,48.0470
2023-05-05T09:00:09.419Z,48.1139
2023-05-05T09:01:10.624Z,48.1217
2023-05-05T09:02:11.776Z,48.0690
2023-05-05T09:03:12.842Z,47.9145
2023-05-05T09:04:13.800Z,47.8909
2023-05-05T09:05:14.908Z,47.8885
2023-05-05T09:06:16.003Z,47.8624
2023-05-05T09:07:17.102Z,47.9582
2023-05-05T09:08:18.183Z,47.9718
2023-05-05T09:09:19.280Z,47.9699
2023-05-05T09:10:20.374Z,47.9430
2023-05-05T09:11:21.479Z,47.7796
2023-05-05T09:12:22.579Z,47.7140
2023-05-05T09:13:23.660Z,47.7986
2023-05-05T09:14:24.780Z,47.7090
2023-05-05T09:15:25.869Z,47.6620
2023-05-05T09:16:26.978Z,47.6756
2023-05-05T09:17:28.145Z,47.7395
2023-05-05T09:18:29.129Z,47.8196
2023-05-05T09:19:30.220Z,47.7719
2023-05-05T09:20:31.316Z,47.6571
2023-05-05T09:21:32.474Z,47.5649
2023-05-05T09:22:33.527Z,47.4612
2023-05-05T09:23:34.613Z,47.4624
2023-05-05T09:24:35.706Z,47.3840
2023-05-05T09:25:36.800Z,47.2436
2023-05-05T09:26:37.915Z,47.1476
2023-05-05T09:27:39.016Z,47.1464
2023-05-05T09:28:40.101Z,47.1390
2023-05-05T09:29:41.256Z,47.0698
2023-05-05T09:30:42.339Z,46.9699
2023-05-05T09:31:43.410Z,46.9035
2023-05-05T09:32:44.670Z,46.8389
2023-05-05T09:33:45.600Z,46.6963
2023-05-05T09:34:46.675Z,46.5666
2023-05-05T09:35:47.783Z,46.4153
2023-05-05T09:36:48.916Z,46.3536
2023-05-05T09:37:49.994Z,46.3989
2023-05-05T09:38:51.071Z,46.5480
2023-05-05T09:39:52.179Z,46.7890
2023-05-05T09:40:53.272Z,46.8100
2023-05-05T09:41:54.379Z,46.6358
2023-05-05T09:42:55.474Z,46.4532
2023-05-05T09:43:56.565Z,46.3069
2023-05-05T09:44:59.679Z,46.2272
2023-05-05T09:45:58.819Z,46.1465
2023-05-05T09:46:59.876Z,46.1333
2023-05-05T09:48:01.176Z,46.1210
2023-05-05T09:49:02.070Z,46.0729
2023-05-05T09:50:03.160Z,46.0819
2023-05-05T09:51:04.256Z,46.1064
2023-05-05T09:52:05.379Z,46.1253
2023-05-05T09:53:06.451Z,46.1590
2023-05-05T09:54:07.575Z,46.0952
2023-05-05T09:55:08.657Z,46.0179
2023-05-05T09:56:09.753Z,46.0145
2023-05-05T09:57:10.836Z,46.0073
2023-05-05T09:58:11.972Z,45.9582
2023-05-05T09:59:13.054Z,45.9148
2023-05-05T10:00:14.150Z,45.8895
2023-05-05T10:01:15.258Z,45.9338
2023-05-05T10:02:16.352Z,45.9271
2023-05-05T10:03:17.515Z,45.9182
2023-05-05T10:04:18.535Z,45.9066
2023-05-05T10:05:19.680Z,45.8455
2023-05-05T10:06:20.728Z,45.7684
2023-05-05T10:07:21.831Z,45.7278
2023-05-05T10:08:22.915Z,45.6896
2023-05-05T10:09:24.026Z,45.7213
2023-05-05T10:10:26.903Z,45.7807
2023-05-05T10:11:26.296Z,45.7425
2023-05-05T10:12:27.400Z,45.7875
2023-05-05T10:13:28.505Z,45.9258
2023-05-05T10:14:29.576Z,45.9916
2023-05-05T10:15:30.655Z,45.9522
2023-05-05T10:16:31.849Z,45.9261
2023-05-05T10:17:32.921Z,45.9410
2023-05-05T10:18:34.032Z,45.9683
2023-05-05T10:19:35.066Z,46.1117
2023-05-05T10:20:36.195Z,46.0898
2023-05-05T10:21:37.234Z,46.0832
2023-05-05T10:22:38.324Z,46.1469
2023-05-05T10:23:39.427Z,46.1845
2023-05-05T10:24:40.529Z,46.2178
2023-05-05T10:25:41.623Z,46.2902
2023-05-05T10:26:42.725Z,46.2915
2023-05-05T10:27:43.818Z,46.3340
2023-05-05T10:28:44.963Z,46.3257
2023-05-05T10:29:46.035Z,46.2706
2023-05-05T10:30:47.098Z,46.2917
2023-05-05T10:31:48.215Z,46.3891
2023-05-05T10:32:54.389Z,46.3854
2023-05-05T10:33:51.586Z,46.3735
2023-05-05T10:34:51.487Z,46.4175
2023-05-05T10:35:52.593Z,46.4200
2023-05-05T10:36:53.703Z,46.4160
2023-05-05T10:37:54.806Z,46.5591
2023-05-05T10:38:55.903Z,46.7445
2023-05-05T10:39:56.967Z,46.8828
2023-05-05T10:40:58.063Z,46.8037
2023-05-05T10:41:59.191Z,46.6568
2023-05-05T10:43:00.271Z,46.5656
2023-05-05T10:44:04.284Z,46.4515
2023-05-05T10:45:02.501Z,46.4647
2023-05-05T10:46:03.590Z,46.4271
2023-05-05T10:47:04.668Z,46.4954
2023-05-05T10:48:05.811Z,46.6445
2023-05-05T10:49:06.859Z,46.6720
2023-05-05T10:50:08.190Z,46.6730
2023-05-05T10:51:09.056Z,46.5025
2023-05-05T10:52:10.129Z,46.4235
2023-05-05T10:53:11.271Z,46.4991
2023-05-05T10:54:12.391Z,46.6309
2023-05-05T10:55:13.484Z,46.6938
2023-05-05T10:56:14.528Z,46.6254
2023-05-05T10:57:15.635Z,46.4277
2023-05-05T10:58:16.713Z,46.2725
2023-05-05T10:59:17.811Z,46.2770
2023-05-05T11:00:18.918Z,46.2218
2023-05-05T11:01:20.050Z,46.0659
2023-05-05T11:02:21.130Z,46.0014
2023-05-05T11:03:22.383Z,45.8287
2023-05-05T11:04:23.460Z,45.7737
2023-05-05T11:05:24.387Z,45.9232
2023-05-05T11:06:25.490Z,45.8645
2023-05-05T11:07:26.574Z,45.7380
2023-05-05T11:08:27.690Z,45.5284
2023-05-05T11:09:28.897Z,45.4057
2023-05-05T11:10:29.875Z,45.3141
2023-05-05T11:11:30.968Z,45.3370
2023-05-05T11:12:32.150Z,45.4503
2023-05-05T11:13:33.168Z,45.6527
2023-05-05T11:14:34.290Z,45.5166
2023-05-05T11:15:35.435Z,45.3861
2023-05-05T11:16:36.473Z,45.1610
2023-05-05T11:17:37.538Z,45.0244
2023-05-05T11:18:38.663Z,44.8953
2023-05-05T11:19:39.852Z,44.6275
2023-05-05T11:20:40.837Z,44.3585
2023-05-05T11:21:41.910Z,44.1459
2023-05-05T11:22:43.020Z,43.8152
2023-05-05T11:23:44.116Z,43.4953
2023-05-05T11:24:45.227Z,43.2131
2023-05-05T11:25:46.314Z,42.9864
2023-05-05T11:26:47.427Z,42.9629
2023-05-05T11:27:48.496Z,42.8388
2023-05-05T11:28:49.601Z,42.7866
2023-05-05T11:29:52.051Z,42.7733
2023-05-05T11:30:51.839Z,42.7734
2023-05-05T11:31:52.878Z,42.7690
2023-05-05T11:32:54.085Z,42.7627
2023-05-05T11:33:55.087Z,43.0133
2023-05-05T11:34:56.265Z,43.2807
2023-05-05T11:35:57.286Z,43.4809
2023-05-05T11:36:58.376Z,43.7196
2023-05-05T11:37:59.471Z,44.0182
2023-05-05T11:39:00.570Z,43.8837
2023-05-05T11:40:01.696Z,43.6637
2023-05-05T11:41:02.779Z,43.4362
2023-05-05T11:42:09.410Z,43.3269
2023-05-05T11:43:05.976Z,43.6267
2023-05-05T11:44:06.068Z,43.8531
2023-05-05T11:45:07.163Z,43.9224
2023-05-05T11:46:08.306Z,43.7710
2023-05-05T11:47:09.354Z,43.8035
2023-05-05T11:48:10.457Z,43.7255
2023-05-05T11:49:11.532Z,43.5156
2023-05-05T11:50:12.738Z,43.5446
2023-05-05T11:51:13.729Z,43.5098
2023-05-05T11:52:14.873Z,43.6711
2023-05-05T11:53:15.918Z,43.8903
2023-05-05T11:54:17.025Z,44.0700
2023-05-05T11:55:18.123Z,44.2693
2023-05-05T11:56:19.446Z,44.6523
2023-05-05T11:57:20.322Z,44.6112
2023-05-05T11:58:21.410Z,44.6936
2023-05-05T11:59:22.513Z,44.9357
2023-05-05T12:00:23.610Z,45.1931
2023-05-05T12:01:24.705Z,45.1204
2023-05-05T12:02:25.839Z,45.1484
2023-05-05T12:03:27.144Z,45.4008
2023-05-05T12:04:28.037Z,45.3186
2023-05-05T12:05:29.194Z,45.4751
2023-05-05T12:06:30.212Z,45.4852
2023-05-05T12:07:31.309Z,45.4617
2023-05-05T12:08:32.394Z,45.4756
2023-05-05T12:09:33.476Z,45.6175
2023-05-05T12:10:34.600Z,45.4483
2023-05-05T12:11:35.746Z,45.2967
2023-05-05T12:12:36.792Z,45.2887
2023-05-05T12:13:37.863Z,45.1380
2023-05-05T12:14:38.962Z,44.8310
2023-05-05T12:15:40.072Z,44.6490
2023-05-05T12:16:41.335Z,44.5596
2023-05-05T12:17:42.317Z,44.6398
2023-05-05T12:18:43.370Z,44.7267